Time;durP1;ratioP1;P1;durP2;ratioP2;P2;SDS_P1;SDS_P2;PMS_P1;PMS_P2;Temp;Humidity;BMP_temperature;BMP_pressure;BME280_temperature;BME280_humidity;BME280_pressure;Samples;Min_cycle;Max_cycle;Signal;HPM_P1;HPM_P2
2023/03/30 00:00:27;;;;;;;4.23;2.20;;;;;;;3.33;40.54;97517.66;5087827;28;20223;-76
2023/03/30 00:02:54;;;;;;;3.63;2.30;;;;;;;3.30;40.22;97539.88;5087767;28;20213;-77
2023/03/30 00:05:22;;;;;;;2.83;2.10;;;;;;;3.29;41.03;97524.53;5086296;28;20244;-76
2023/03/30 00:07:49;;;;;;;4.10;2.50;;;;;;;3.26;41.38;97515.16;5087650;28;20242;-76
2023/03/30 00:10:18;;;;;;;4.07;2.30;;;;;;;3.29;40.86;97517.72;5086299;28;20740;-76
2023/03/30 00:12:46;;;;;;;4.27;2.30;;;;;;;3.36;41.18;97517.66;5087789;28;20261;-77
2023/03/30 00:15:15;;;;;;;3.23;2.00;;;;;;;3.36;41.19;97517.66;5087153;28;20284;-78
2023/03/30 00:17:43;;;;;;;2.30;1.90;;;;;;;3.37;41.28;97514.22;5086968;28;20194;-78
2023/03/30 00:20:12;;;;;;;2.77;2.03;;;;;;;3.27;40.78;97510.91;5087431;28;20184;-77
2023/03/30 00:22:40;;;;;;;2.40;1.90;;;;;;;3.39;40.53;97513.34;5086208;28;20202;-76
2023/03/30 00:25:10;;;;;;;3.30;2.17;;;;;;;3.38;40.31;97505.69;5087594;28;20216;-77
2023/03/30 00:27:39;;;;;;;3.33;2.20;;;;;;;3.47;40.65;97516.66;5086174;28;20189;-76
2023/03/30 00:30:12;;;;;;;4.03;2.40;;;;;;;3.41;40.12;97495.41;5052825;28;20208;-79
2023/03/30 00:32:39;;;;;;;3.60;2.57;;;;;;;3.48;40.34;97517.53;5089311;28;20184;-78
2023/03/30 00:35:09;;;;;;;3.50;2.57;;;;;;;3.47;40.21;97496.19;5086391;28;20196;-77
2023/03/30 00:37:36;;;;;;;4.47;2.43;;;;;;;3.50;41.02;97513.22;5087586;28;20188;-77
2023/03/30 00:40:06;;;;;;;4.47;2.87;;;;;;;3.48;40.13;97509.84;5068045;28;20695;-77
2023/03/30 00:42:35;;;;;;;4.10;2.80;;;;;;;3.52;40.43;97503.81;5087647;28;20184;-77
2023/03/30 00:45:22;;;;;;;4.53;2.03;;;;;;;3.53;40.37;97501.22;5067812;28;20714;-77
2023/03/30 00:48:06;;;;;;;4.30;2.57;;;;;;;3.50;40.80;97513.22;5087116;28;20275;-77
2023/03/30 00:50:36;;;;;;;2.80;2.03;;;;;;;3.54;40.57;97512.34;5069521;28;20192;-76
2023/03/30 00:53:19;;;;;;;3.43;2.40;;;;;;;3.59;39.77;97515.66;5085953;28;20834;-78
2023/03/30 00:55:49;;;;;;;3.97;2.40;;;;;;;3.46;39.98;97514.13;5069107;28;21071;-77
2023/03/30 00:58:17;;;;;;;3.17;2.23;;;;;;;3.50;40.07;97518.34;5086225;28;20250;-77
2023/03/30 01:00:46;;;;;;;2.30;2.10;;;;;;;3.52;40.43;97514.91;5102754;28;20686;-77
2023/03/30 01:03:36;;;;;;;3.07;2.47;;;;;;;3.46;40.58;97514.13;5087884;28;20743;-79
2023/03/30 01:06:06;;;;;;;3.00;2.30;;;;;;;3.40;40.63;97491.97;5090154;28;20223;-77
2023/03/30 01:08:33;;;;;;;2.83;1.97;;;;;;;3.64;40.14;97513.91;5091277;28;20658;-78
2023/03/30 01:11:02;;;;;;;3.40;2.13;;;;;;;3.62;39.78;97505.41;5089723;28;20575;-78
2023/03/30 01:13:37;;;;;;;6.93;2.60;;;;;;;3.48;40.17;97491.91;5090912;28;20878;-77
2023/03/30 01:16:31;;;;;;;3.73;2.40;;;;;;;3.56;40.25;97511.47;5090866;28;20587;-76
2023/03/30 01:19:28;;;;;;;3.57;2.20;;;;;;;3.78;39.56;97527.41;5089128;28;20227;-76
2023/03/30 01:22:14;;;;;;;2.47;2.00;;;;;;;3.76;39.60;97519.75;5090437;28;20244;-76
2023/03/30 01:25:02;;;;;;;4.43;1.80;;;;;;;3.68;39.75;97516.44;5090309;28;20216;-76
2023/03/30 01:27:50;;;;;;;3.23;2.13;;;;;;;3.78;39.18;97523.16;5089063;28;20290;-77
2023/03/30 01:30:36;;;;;;;3.33;2.20;;;;;;;3.77;39.61;97525.72;5072434;28;20193;-77
2023/03/30 01:33:21;;;;;;;3.83;2.13;;;;;;;3.72;39.87;97532.59;5089768;28;20646;-78
2023/03/30 01:35:48;;;;;;;4.00;2.20;;;;;;;3.69;39.50;97527.53;5089683;28;20615;-77
2023/03/30 01:38:34;;;;;;;3.33;2.10;;;;;;;3.72;39.48;97527.50;5072255;28;20219;-76
2023/03/30 01:41:12;;;;;;;2.83;2.07;;;;;;;3.57;39.56;97502.03;5088961;28;20207;-77
2023/03/30 01:43:51;;;;;;;2.90;2.20;;;;;;;3.71;39.87;97530.94;5090249;28;20656;-76
2023/03/30 01:46:29;;;;;;;2.53;2.13;;;;;;;3.55;39.25;97511.44;5071918;28;20677;-77
2023/03/30 01:49:00;;;;;;;2.97;2.40;;;;;;;3.63;40.12;97533.56;5104443;28;20211;-77
2023/03/30 01:51:44;;;;;;;3.40;2.03;;;;;;;3.68;39.69;97525.81;5090055;28;20254;-77
2023/03/30 01:54:28;;;;;;;3.53;2.10;;;;;;;3.68;39.68;97526.69;5070916;28;20604;-78
2023/03/30 01:57:08;;;;;;;2.33;2.00;;;;;;;3.73;39.48;97531.75;5071698;28;20245;-78
2023/03/30 01:59:53;;;;;;;2.73;2.00;;;;;;;3.74;39.49;97524.06;5072111;28;20199;-78
2023/03/30 02:02:26;;;;;;;3.67;2.23;;;;;;;3.75;39.58;97528.28;5088831;28;20224;-77
2023/03/30 02:04:56;;;;;;;2.20;2.00;;;;;;;3.76;39.16;97524.88;5090032;28;20247;-75
2023/03/30 02:07:30;;;;;;;3.93;2.37;;;;;;;3.62;39.37;97511.38;5072905;28;20196;-76
2023/03/30 02:10:01;;;;;;;2.90;2.10;;;;;;;3.69;39.71;97517.28;5096233;28;20212;-74
2023/03/30 02:12:30;;;;;;;2.90;2.27;;;;;;;3.71;39.57;97516.38;5095033;28;20258;-76
2023/03/30 02:15:02;;;;;;;3.00;2.30;;;;;;;3.64;39.44;97498.56;5086982;28;20188;-75
2023/03/30 02:17:30;;;;;;;2.40;1.77;;;;;;;3.76;39.10;97516.34;5071790;28;20205;-76
2023/03/30 02:19:58;;;;;;;3.00;2.10;;;;;;;3.77;39.41;97512.94;5088981;28;20188;-77
2023/03/30 02:22:28;;;;;;;3.80;2.50;;;;;;;3.72;39.38;97507.00;5091912;28;20250;-76
2023/03/30 02:24:57;;;;;;;3.37;2.23;;;;;;;3.60;39.58;97517.38;5089322;28;20216;-75
2023/03/30 02:27:26;;;;;;;2.47;2.27;;;;;;;3.54;40.32;97527.69;5088709;28;20188;-75
2023/03/30 02:29:55;;;;;;;2.93;2.13;;;;;;;3.58;40.07;97539.59;5089631;28;20238;-74
2023/03/30 02:32:26;;;;;;;2.27;1.90;;;;;;;3.55;39.97;97542.16;5087948;28;20236;-74
2023/03/30 02:35:02;;;;;;;3.10;2.37;;;;;;;3.56;39.72;97533.66;5054916;28;20196;-74
2023/03/30 02:37:41;;;;;;;3.53;2.93;;;;;;;3.66;39.25;97527.56;5087872;28;20595;-74
2023/03/30 02:40:23;;;;;;;4.50;2.37;;;;;;;3.76;39.49;97539.38;5088732;28;20193;-72
2023/03/30 02:42:53;;;;;;;2.80;2.07;;;;;;;3.68;39.81;97544.59;5071123;28;20193;-73
2023/03/30 02:45:23;;;;;;;2.93;2.17;;;;;;;3.72;39.78;97535.16;5087660;28;20695;-73
2023/03/30 02:47:58;;;;;;;3.27;2.43;;;;;;;3.69;40.20;97543.72;5071173;28;20181;-74
2023/03/30 02:50:35;;;;;;;4.03;2.27;;;;;;;3.81;39.72;97546.16;5069637;28;20207;-73
2023/03/30 02:53:23;;;;;;;3.23;2.23;;;;;;;3.69;39.59;97512.16;5070197;28;20228;-74
2023/03/30 02:56:06;;;;;;;3.83;2.33;;;;;;;3.77;39.66;97547.06;5104737;28;20674;-72
2023/03/30 02:58:56;;;;;;;4.93;2.70;;;;;;;3.86;39.51;97551.22;5069472;28;20814;-73
2023/03/30 03:01:41;;;;;;;3.17;2.30;;;;;;;3.78;39.55;97551.31;5070377;28;20296;-74
2023/03/30 03:04:14;;;;;;;3.80;2.37;;;;;;;3.81;39.94;97547.88;5070494;28;20196;-74
2023/03/30 03:07:18;;;;;;;4.67;2.13;;;;;;;3.85;40.61;97545.25;5068095;28;20204;-74
2023/03/30 03:09:45;;;;;;;3.90;2.57;;;;;;;3.67;41.34;97535.22;5070547;28;20291;-75
2023/03/30 03:12:12;;;;;;;3.53;2.50;;;;;;;3.76;41.75;97559.88;5069767;28;20637;-74
2023/03/30 03:14:41;;;;;;;6.37;2.60;;;;;;;3.67;41.39;97547.19;5070192;28;20194;-72
2023/03/30 03:17:12;;;;;;;3.17;2.40;;;;;;;3.67;42.30;97565.94;5067620;28;20241;-75
2023/03/30 03:19:43;;;;;;;3.57;2.10;;;;;;;3.55;41.17;97567.78;5068133;28;20261;-74
2023/03/30 03:22:10;;;;;;;5.47;2.60;;;;;;;3.54;42.42;97556.72;5070534;28;20729;-73
2023/03/30 03:24:39;;;;;;;4.27;2.50;;;;;;;3.56;42.20;97564.38;5068892;28;20197;-74
2023/03/30 03:27:25;;;;;;;4.80;3.00;;;;;;;3.57;42.53;97572.03;5087848;28;20185;-75
2023/03/30 03:30:13;;;;;;;9.80;4.83;;;;;;;3.40;43.23;97571.31;5067921;28;20268;-76
2023/03/30 03:32:50;;;;;;;12.73;5.67;;;;;;;3.51;42.96;97574.66;5057702;28;20670;-75
2023/03/30 03:35:17;;;;;;;4.60;2.93;;;;;;;3.32;43.61;97567.16;5060978;28;20219;-77
2023/03/30 03:37:44;;;;;;;6.80;3.00;;;;;;;3.43;43.17;97566.19;5060146;28;20196;-74
2023/03/30 03:40:12;;;;;;;9.53;5.73;;;;;;;3.53;43.24;97562.69;5070022;28;20203;-77
2023/03/30 03:42:39;;;;;;;7.37;3.87;;;;;;;3.59;43.09;97572.84;5087408;28;20257;-77
2023/03/30 03:45:10;;;;;;;42.63;8.83;;;;;;;3.32;43.12;97560.31;5068347;28;20190;-78
2023/03/30 03:47:50;;;;;;;19.70;6.47;;;;;;;3.20;45.48;97584.31;5069666;28;20679;-78
2023/03/30 03:50:23;;;;;;;31.27;8.50;;;;;;;3.35;44.04;97577.38;5067805;28;20191;-73
2023/03/30 03:52:51;;;;;;;24.60;6.10;;;;;;;3.40;44.39;97588.41;5069467;28;20259;-79
2023/03/30 03:55:18;;;;;;;17.27;6.50;;;;;;;3.31;44.39;97576.56;5068309;28;20211;-74
2023/03/30 03:57:46;;;;;;;17.97;5.23;;;;;;;3.19;44.12;97572.38;5086964;28;20279;-75
2023/03/30 04:00:16;;;;;;;16.17;6.23;;;;;;;3.18;44.75;97583.47;5068140;28;20199;-76
2023/03/30 04:02:48;;;;;;;21.80;7.17;;;;;;;3.19;43.70;97574.09;5068365;28;20177;-74
2023/03/30 04:05:15;;;;;;;11.77;4.60;;;;;;;3.15;44.27;97582.66;5069604;28;20194;-77
2023/03/30 04:07:45;;;;;;;20.97;8.43;;;;;;;3.39;44.54;97595.25;5086183;28;20185;-73
2023/03/30 04:10:13;;;;;;;21.67;9.60;;;;;;;3.49;43.57;97601.13;5087454;28;20189;-75
2023/03/30 04:12:49;;;;;;;14.93;6.30;;;;;;;3.44;43.52;97602.88;5068729;28;20278;-76
2023/03/30 04:15:29;;;;;;;12.17;6.00;;;;;;;3.47;43.90;97602.84;5050599;28;20262;-76
2023/03/30 04:18:08;;;;;;;16.00;6.47;;;;;;;3.40;43.72;97588.41;5060614;28;20200;-75
2023/03/30 04:21:11;;;;;;;17.37;6.90;;;;;;;3.44;44.23;97608.00;5077963;28;20239;-76
2023/03/30 04:23:57;;;;;;;18.27;7.33;;;;;;;3.43;44.32;97599.47;5085119;28;20200;-77
2023/03/30 04:26:47;;;;;;;13.97;7.20;;;;;;;3.25;45.26;97615.84;5087540;28;20714;-78
2023/03/30 04:29:39;;;;;;;15.60;7.47;;;;;;;3.20;45.64;97615.03;5067983;28;20675;-79
2023/03/30 04:32:37;;;;;;;13.37;7.60;;;;;;;3.19;44.80;97617.59;5042259;28;20987;-75
2023/03/30 04:35:25;;;;;;;17.80;8.53;;;;;;;3.29;45.13;97629.47;5045881;28;20739;-75
2023/03/30 04:37:51;;;;;;;17.07;7.83;;;;;;;3.18;45.64;97619.31;5069402;28;20234;-77
2023/03/30 04:40:36;;;;;;;20.43;10.83;;;;;;;3.29;45.57;97630.31;5073492;28;20196;-78
2023/03/30 04:43:22;;;;;;;22.73;10.43;;;;;;;3.47;45.97;97628.44;5073477;28;20199;-77
2023/03/30 04:46:21;;;;;;;29.00;14.67;;;;;;;3.44;45.30;97608.88;5055332;28;20315;-77
2023/03/30 04:49:12;;;;;;;29.83;14.27;;;;;;;3.86;44.12;97628.06;5062108;28;20710;-74
2023/03/30 04:52:10;;;;;;;42.03;20.67;;;;;;;4.21;44.22;97638.78;5090230;28;20184;-76
2023/03/30 04:54:58;;;;;;;16.07;9.37;;;;;;;4.00;43.43;97626.22;5037963;28;20285;-78
2023/03/30 04:57:57;;;;;;;21.50;8.27;;;;;;;4.35;43.16;97644.59;5091068;28;21104;-76
2023/03/30 05:00:42;;;;;;;14.93;8.57;;;;;;;4.53;42.42;97638.44;5090652;28;20246;-74
2023/03/30 05:03:32;;;;;;;13.47;7.67;;;;;;;4.78;42.45;97653.47;5060077;28;20610;-79
2023/03/30 05:06:08;;;;;;;9.50;7.27;;;;;;;4.90;41.97;97645.59;5072686;28;20230;-75
2023/03/30 05:09:02;;;;;;;11.53;6.50;;;;;;;5.13;41.21;97647.84;5087034;28;20215;-74
2023/03/30 05:11:56;;;;;;;15.17;8.53;;;;;;;5.16;40.83;97650.38;5058486;28;20189;-77
2023/03/30 05:14:38;;;;;;;12.10;8.53;;;;;;;5.13;41.09;97654.72;5072758;28;20193;-74
2023/03/30 05:17:37;;;;;;;10.10;4.57;;;;;;;4.82;40.14;97626.91;5034242;28;20213;-78
2023/03/30 05:20:33;;;;;;;8.67;5.13;;;;;;;5.23;40.54;97651.13;5079157;28;20232;-77
2023/03/30 05:23:24;;;;;;;8.37;4.87;;;;;;;5.57;39.56;97654.84;5079128;28;20750;-77
2023/03/30 05:26:16;;;;;;;6.00;4.37;;;;;;;5.70;40.18;97659.78;5070945;28;20304;-77
2023/03/30 05:29:06;;;;;;;5.13;3.80;;;;;;;5.86;39.06;97647.53;5075424;28;20302;-78
2023/03/30 05:31:50;;;;;;;5.93;3.63;;;;;;;5.56;38.76;97658.31;5072005;28;20661;-77
2023/03/30 05:34:31;;;;;;;6.67;3.97;;;;;;;5.61;38.66;97625.69;5070839;28;20258;-74
2023/03/30 05:37:36;;;;;;;9.33;4.60;;;;;;;5.76;38.13;97644.25;5064700;28;20209;-76
2023/03/30 05:40:24;;;;;;;6.37;4.67;;;;;;;6.18;39.39;97660.66;5071989;28;20187;-79
2023/03/30 05:43:14;;;;;;;6.80;4.00;;;;;;;6.49;39.59;97659.19;5075324;28;20199;-74
2023/03/30 05:46:10;;;;;;;8.33;3.77;;;;;;;6.62;38.74;97648.66;5070882;28;20237;-77
2023/03/30 05:48:57;;;;;;;5.77;3.90;;;;;;;6.77;38.18;97658.63;5070991;28;20189;-76
2023/03/30 05:51:38;;;;;;;6.70;3.67;;;;;;;6.90;37.15;97642.06;5070214;28;20232;-78
2023/03/30 05:54:20;;;;;;;4.30;3.47;;;;;;;6.95;36.76;97663.38;5071311;28;20635;-78
2023/03/30 05:56:59;;;;;;;8.80;4.87;;;;;;;7.11;36.75;97664.78;5056547;28;20189;-76
2023/03/30 05:59:32;;;;;;;10.20;6.47;;;;;;;7.03;36.48;97664.06;5070092;28;20223;-79
2023/03/30 06:02:32;;;;;;;11.03;6.37;;;;;;;6.98;37.31;97632.44;5033794;28;20214;-76
2023/03/30 06:05:04;;;;;;;5.40;3.47;;;;;;;7.04;35.63;97669.19;5070646;28;20180;-74
2023/03/30 06:07:32;;;;;;;6.87;4.17;;;;;;;7.11;36.73;97669.91;5070287;28;20630;-75
2023/03/30 06:10:00;;;;;;;8.20;5.37;;;;;;;7.36;36.29;97669.31;5071494;28;20629;-77
2023/03/30 06:12:29;;;;;;;8.97;4.70;;;;;;;7.39;37.19;97689.88;5069981;28;20189;-76
2023/03/30 06:14:57;;;;;;;5.93;4.23;;;;;;;7.40;35.84;97644.31;5071450;28;20667;-74
2023/03/30 06:17:39;;;;;;;10.43;5.10;;;;;;;7.72;36.71;97683.06;5038968;28;20192;-78
2023/03/30 06:20:11;;;;;;;7.73;4.97;;;;;;;7.71;36.32;97665.91;5070099;28;20715;-76
2023/03/30 06:22:42;;;;;;;5.77;3.50;;;;;;;7.38;36.07;97679.56;5071126;28;20188;-75
2023/03/30 06:25:14;;;;;;;5.17;3.23;;;;;;;7.51;35.34;97675.84;5069505;28;20680;-78
2023/03/30 06:27:42;;;;;;;4.03;3.00;;;;;;;7.33;35.87;97673.69;5070631;28;20285;-79
2023/03/30 06:30:11;;;;;;;3.03;2.30;;;;;;;7.49;35.02;97675.03;5069008;28;20204;-74
2023/03/30 06:32:40;;;;;;;5.50;2.90;;;;;;;7.64;34.99;97685.00;5045639;28;20190;-78
2023/03/30 06:35:08;;;;;;;3.43;2.97;;;;;;;7.52;33.52;97656.09;5085009;28;20199;-75
2023/03/30 06:37:36;;;;;;;6.27;2.43;;;;;;;7.83;33.22;97688.78;5044119;28;20691;-78
2023/03/30 06:40:12;;;;;;;2.67;2.20;;;;;;;7.86;31.76;97682.72;5063715;28;20590;-74
2023/03/30 06:42:43;;;;;;;4.03;2.33;;;;;;;7.73;32.85;97668.47;5069296;28;20202;-78
2023/03/30 06:45:38;;;;;;;2.27;1.90;;;;;;;7.93;31.72;97677.38;5072938;28;20353;-78
2023/03/30 06:48:06;;;;;;;2.00;1.80;;;;;;;8.01;30.56;97690.94;5069385;28;20224;-77
2023/03/30 06:50:37;;;;;;;3.27;1.90;;;;;;;7.96;29.85;97685.03;5069467;28;20275;-78
2023/03/30 06:53:25;;;;;;;3.07;1.90;;;;;;;8.11;28.79;97691.53;5088092;28;20278;-79
2023/03/30 06:55:54;;;;;;;4.40;2.33;;;;;;;8.27;30.27;97692.88;5068898;28;20680;-78
2023/03/30 06:58:24;;;;;;;4.73;2.23;;;;;;;8.47;30.13;97689.78;5070248;28;20204;-77
2023/03/30 07:00:52;;;;;;;2.20;1.77;;;;;;;8.46;27.68;97686.34;5068138;28;20610;-77
2023/03/30 07:03:25;;;;;;;1.90;1.70;;;;;;;8.38;28.92;97693.44;5102647;28;20641;-76
2023/03/30 07:06:19;;;;;;;4.77;2.83;;;;;;;8.67;27.92;97698.66;5085014;28;20235;-75
2023/03/30 07:08:47;;;;;;;2.20;2.00;;;;;;;8.56;27.63;97697.25;5069218;28;20218;-77
2023/03/30 07:11:21;;;;;;;3.27;2.37;;;;;;;8.55;28.13;97691.22;5070111;28;20654;-76
2023/03/30 07:13:49;;;;;;;3.90;2.40;;;;;;;8.66;28.18;97688.34;5068561;28;20664;-73
2023/03/30 07:16:17;;;;;;;4.27;1.60;;;;;;;8.66;27.93;97693.53;5055187;28;20283;-74
2023/03/30 07:18:46;;;;;;;2.67;1.93;;;;;;;8.43;27.97;97698.47;5049271;28;20194;-78
2023/03/30 07:21:13;;;;;;;3.97;2.93;;;;;;;8.73;28.86;97707.97;5048080;28;20315;-75
2023/03/30 07:23:42;;;;;;;2.57;1.73;;;;;;;8.59;27.95;97700.63;5033140;28;20219;-75
2023/03/30 07:26:21;;;;;;;3.23;1.80;;;;;;;8.58;28.55;97700.63;5048006;28;20255;-75
2023/03/30 07:28:55;;;;;;;2.60;1.80;;;;;;;8.66;28.72;97686.63;5049260;28;20665;-77
2023/03/30 07:31:23;;;;;;;3.50;2.13;;;;;;;8.94;28.89;97697.03;5048024;28;20284;-77
2023/03/30 07:33:51;;;;;;;2.47;2.13;;;;;;;8.99;28.56;97684.81;5031911;28;20196;-75
2023/03/30 07:36:23;;;;;;;3.60;1.80;;;;;;;8.93;28.54;97690.16;5032487;28;20219;-77
2023/03/30 07:38:51;;;;;;;2.90;1.90;;;;;;;8.94;28.42;97673.78;5065751;28;20264;-76
2023/03/30 07:41:18;;;;;;;3.27;2.00;;;;;;;8.98;27.65;97693.47;5049039;28;20246;-77
2023/03/30 07:43:49;;;;;;;1.63;1.53;;;;;;;8.87;27.72;97680.00;5047839;28;20314;-78
2023/03/30 07:46:16;;;;;;;4.60;2.07;;;;;;;9.05;28.07;97683.81;5048692;28;20213;-76
2023/03/30 07:48:46;;;;;;;3.43;2.30;;;;;;;8.94;27.69;97668.63;5048466;28;20996;-77
2023/03/30 07:51:14;;;;;;;6.30;2.97;;;;;;;9.20;27.61;97683.34;5048100;28;20579;-74
2023/03/30 07:53:50;;;;;;;2.77;1.67;;;;;;;9.29;27.23;97683.06;5048829;28;20250;-78
2023/03/30 07:56:23;;;;;;;3.77;1.90;;;;;;;9.24;26.60;97683.19;5047308;28;20679;-78
2023/03/30 07:58:53;;;;;;;4.87;2.20;;;;;;;9.12;27.20;97673.25;5049259;28;20683;-76
2023/03/30 08:01:25;;;;;;;3.70;1.93;;;;;;;8.99;27.22;97679.66;5047801;28;20656;-78
2023/03/30 08:04:10;;;;;;;2.57;1.70;;;;;;;8.83;27.14;97671.50;5048130;28;20185;-77
2023/03/30 08:06:39;;;;;;;2.27;1.77;;;;;;;9.00;26.88;97655.53;5049020;28;20746;-77
2023/03/30 08:09:06;;;;;;;3.20;1.90;;;;;;;9.22;26.35;97672.06;5047785;28;20311;-78
2023/03/30 08:11:35;;;;;;;4.30;2.23;;;;;;;9.49;26.97;97671.22;5082265;28;20281;-75
2023/03/30 08:14:03;;;;;;;2.43;2.00;;;;;;;9.62;26.70;97667.34;5080747;28;20253;-80
2023/03/30 08:16:30;;;;;;;3.53;1.47;;;;;;;9.50;26.62;97678.06;5066849;28;20312;-78
2023/03/30 08:19:37;;;;;;;1.63;1.40;;;;;;;9.39;26.62;97674.13;5070874;28;20205;-79
2023/03/30 08:22:18;;;;;;;3.23;2.20;;;;;;;9.83;26.66;97671.81;5084705;28;20219;-77
2023/03/30 08:24:46;;;;;;;3.47;2.53;;;;;;;9.67;26.21;97660.28;5068947;28;20220;-78
2023/03/30 08:27:48;;;;;;;1.87;1.60;;;;;;;9.78;25.72;97665.97;5086552;28;20268;-78
2023/03/30 08:30:15;;;;;;;8.20;5.07;;;;;;;9.89;25.99;97657.00;5081718;28;20287;-75
2023/03/30 08:33:23;;;;;;;5.57;3.23;;;;;;;10.25;25.69;97648.88;5067854;28;20265;-77
2023/03/30 08:35:51;;;;;;;1.57;1.47;;;;;;;10.23;25.09;97655.00;5066117;28;20276;-76
2023/03/30 08:38:18;;;;;;;1.80;1.40;;;;;;;10.07;25.40;97651.22;5073281;28;20201;-77
2023/03/30 08:40:47;;;;;;;2.80;1.50;;;;;;;9.96;25.45;97655.88;5066168;28;20691;-77
2023/03/30 08:43:44;;;;;;;1.40;1.10;;;;;;;9.71;25.72;97640.34;5065602;28;20229;-76
2023/03/30 08:46:14;;;;;;;1.83;1.50;;;;;;;9.70;26.25;97634.34;5066881;28;20244;-77
2023/03/30 08:48:43;;;;;;;3.77;1.60;;;;;;;9.86;25.35;97639.84;5065169;28;20199;-78
2023/03/30 08:51:24;;;;;;;3.87;2.33;;;;;;;10.26;25.56;97637.59;5076885;28;20212;-76
2023/03/30 08:53:55;;;;;;;2.87;2.00;;;;;;;10.50;25.24;97635.91;5086537;28;20200;-79
2023/03/30 08:56:30;;;;;;;2.33;1.93;;;;;;;10.75;24.82;97636.72;5085713;28;20180;-75
2023/03/30 08:59:19;;;;;;;3.37;1.30;;;;;;;10.53;23.91;97635.81;5087047;28;20191;-77
2023/03/30 09:01:52;;;;;;;1.83;1.40;;;;;;;10.46;24.67;97631.75;5085168;28;20213;-75
2023/03/30 09:04:40;;;;;;;2.10;1.30;;;;;;;10.25;24.41;97624.72;5086439;28;20272;-74
2023/03/30 09:07:39;;;;;;;3.70;1.57;;;;;;;10.47;24.22;97610.97;5086410;28;20324;-75
2023/03/30 09:10:12;;;;;;;4.13;2.37;;;;;;;10.85;25.33;97612.16;5061374;28;20200;-77
2023/03/30 09:12:52;;;;;;;5.13;2.40;;;;;;;11.13;24.58;97599.81;5086206;28;20198;-75
2023/03/30 09:15:30;;;;;;;2.90;1.67;;;;;;;11.34;24.99;97586.00;5085714;28;20189;-75
2023/03/30 09:18:22;;;;;;;3.47;1.97;;;;;;;11.60;25.16;97604.88;5085107;28;20200;-79
2023/03/30 09:20:53;;;;;;;2.47;1.83;;;;;;;11.63;25.55;97591.75;5085698;28;20706;-76
2023/03/30 09:23:20;;;;;;;3.33;1.50;;;;;;;11.61;24.70;97573.66;5084844;28;20253;-78
2023/03/30 09:26:01;;;;;;;2.17;1.70;;;;;;;11.67;24.71;97583.81;5088782;28;20244;-75
2023/03/30 09:28:47;;;;;;;2.23;1.27;;;;;;;11.72;24.23;97583.63;5089400;28;20216;-78
2023/03/30 09:31:27;;;;;;;2.63;1.70;;;;;;;11.77;25.03;97571.28;5088117;28;20191;-76
2023/03/30 09:34:35;;;;;;;2.10;1.77;;;;;;;11.82;24.27;97579.75;5089801;28;20200;-75
2023/03/30 09:37:07;;;;;;;1.63;1.53;;;;;;;12.06;24.11;97578.69;5088465;28;20617;-77
2023/03/30 09:39:35;;;;;;;6.37;2.50;;;;;;;11.87;24.18;97575.22;5088695;28;20230;-76
2023/03/30 09:42:24;;;;;;;3.23;1.43;;;;;;;11.85;24.24;97577.03;5089580;28;20632;-78
2023/03/30 09:44:57;;;;;;;2.30;1.40;;;;;;;11.94;23.68;97574.03;5088476;28;20193;-77
2023/03/30 09:47:27;;;;;;;3.17;1.47;;;;;;;11.95;23.64;97570.53;5089040;28;20796;-74
2023/03/30 09:50:05;;;;;;;7.03;2.33;;;;;;;12.05;24.27;97567.50;5088638;28;20206;-75
2023/03/30 09:52:37;;;;;;;1.90;1.50;;;;;;;12.20;23.58;97569.41;5088312;28;20286;-75
2023/03/30 09:55:20;;;;;;;2.47;1.50;;;;;;;12.38;23.26;97557.38;5089482;28;20233;-77
2023/03/30 09:57:48;;;;;;;1.87;1.60;;;;;;;12.57;23.20;97554.78;5069702;28;20197;-77
2023/03/30 10:00:41;;;;;;;2.40;2.07;;;;;;;12.65;22.78;97560.50;5088791;28;20588;-76
2023/03/30 10:03:21;;;;;;;2.40;1.83;;;;;;;12.68;22.67;97545.59;5085741;28;20195;-74
2023/03/30 10:06:06;;;;;;;2.10;1.50;;;;;;;12.26;22.22;97553.56;5087827;28;20233;-75
2023/03/30 10:08:41;;;;;;;2.17;1.40;;;;;;;11.98;22.89;97550.47;5088904;28;20290;-76
2023/03/30 10:11:09;;;;;;;1.90;1.40;;;;;;;12.37;22.76;97537.50;5087655;28;20189;-75
2023/03/30 10:13:41;;;;;;;3.20;1.40;;;;;;;12.21;22.37;97526.97;5088691;28;20670;-77
2023/03/30 10:16:23;;;;;;;1.57;1.30;;;;;;;11.94;22.77;97537.69;5088501;28;20729;-76
2023/03/30 10:18:58;;;;;;;1.40;1.30;;;;;;;12.24;23.35;97532.00;5069201;28;20189;-77
2023/03/30 10:21:30;;;;;;;3.10;1.73;;;;;;;12.19;22.62;97527.94;5070468;28;20229;-74
2023/03/30 10:24:06;;;;;;;1.67;1.37;;;;;;;12.34;23.10;97516.88;5102547;28;20603;-77
2023/03/30 10:26:36;;;;;;;2.63;1.50;;;;;;;12.48;22.49;97521.44;5088190;28;20695;-75
2023/03/30 10:29:09;;;;;;;2.53;1.20;;;;;;;12.33;22.86;97522.97;5088610;28;20308;-78
2023/03/30 10:31:41;;;;;;;2.57;1.20;;;;;;;12.52;22.91;97526.44;5069223;28;20195;-77
2023/03/30 10:34:17;;;;;;;3.17;1.27;;;;;;;12.55;22.49;97515.88;5088438;28;20206;-77
2023/03/30 10:36:47;;;;;;;1.37;1.27;;;;;;;12.54;21.87;97509.00;5087100;28;20193;-75
2023/03/30 10:39:29;;;;;;;2.33;1.73;;;;;;;12.88;22.60;97505.69;5088232;28;20517;-77
2023/03/30 10:42:00;;;;;;;2.73;1.20;;;;;;;13.01;22.21;97499.81;5088034;28;20218;-76
2023/03/30 10:44:34;;;;;;;2.93;1.43;;;;;;;13.11;22.28;97512.44;5087343;28;20195;-77
2023/03/30 10:47:15;;;;;;;2.63;1.87;;;;;;;12.98;22.65;97484.34;5070245;28;20217;-77
2023/03/30 10:49:55;;;;;;;3.93;1.60;;;;;;;13.27;22.04;97508.16;5086964;28;20289;-75
2023/03/30 10:52:42;;;;;;;1.50;1.37;;;;;;;13.37;22.31;97497.22;5087910;28;20190;-77
2023/03/30 10:56:02;;;;;;;2.03;1.50;;;;;;;13.27;22.05;97490.78;5088248;28;20249;-78
2023/03/30 10:58:48;;;;;;;2.03;1.10;;;;;;;13.38;22.23;97478.09;5086690;28;20183;-77
2023/03/30 11:01:21;;;;;;;2.90;1.60;;;;;;;13.51;21.77;97473.13;5088139;28;20198;-78
2023/03/30 11:03:56;;;;;;;3.97;2.60;;;;;;;13.43;22.06;97462.25;5087905;28;20223;-80
2023/03/30 11:06:31;;;;;;;5.13;2.03;;;;;;;13.56;21.97;97456.34;5086266;28;20199;-77
2023/03/30 11:09:03;;;;;;;3.73;2.10;;;;;;;13.62;22.00;97457.81;5087925;28;20710;-75
2023/03/30 11:11:46;;;;;;;2.80;1.80;;;;;;;13.79;21.32;97458.59;5086308;28;20188;-78
2023/03/30 11:14:49;;;;;;;4.77;1.30;;;;;;;13.44;21.49;97462.16;5068863;28;20260;-76
2023/03/30 11:17:24;;;;;;;4.83;2.37;;;;;;;13.79;21.15;97458.59;5069485;28;20227;-79
2023/03/30 11:19:55;;;;;;;2.23;1.50;;;;;;;13.56;21.31;97465.94;5086027;28;20184;-77
2023/03/30 11:22:46;;;;;;;2.60;1.63;;;;;;;13.64;21.35;97440.34;5102790;28;20257;-75
2023/03/30 11:25:24;;;;;;;3.17;1.50;;;;;;;13.89;21.32;97454.59;5087244;28;20188;-76
2023/03/30 11:27:58;;;;;;;2.10;1.70;;;;;;;14.08;21.07;97436.25;5086134;28;20904;-75
2023/03/30 11:30:28;;;;;;;4.53;2.97;;;;;;;14.02;21.09;97441.78;5052679;28;20711;-77
2023/03/30 11:33:03;;;;;;;1.27;1.17;;;;;;;13.84;20.85;97445.34;5086238;28;20632;-77
2023/03/30 11:35:52;;;;;;;3.70;2.37;;;;;;;14.05;20.40;97446.84;5087024;28;20208;-78
2023/03/30 11:38:46;;;;;;;1.47;1.10;;;;;;;13.88;20.64;97446.88;5087036;28;20185;-78
2023/03/30 11:41:16;;;;;;;1.10;1.00;;;;;;;13.44;20.38;97435.31;5075450;28;20197;-76
2023/03/30 11:43:43;;;;;;;1.70;1.50;;;;;;;13.32;21.46;97422.91;5066783;28;20198;-76
2023/03/30 11:46:21;;;;;;;3.83;2.30;;;;;;;13.45;21.16;97422.25;5048111;28;20201;-78
2023/03/30 11:49:06;;;;;;;2.47;1.40;;;;;;;13.49;21.12;97415.09;5070455;28;20263;-75
2023/03/30 11:51:48;;;;;;;1.33;1.20;;;;;;;13.60;20.54;97384.19;5082969;28;20188;-80
2023/03/30 11:54:15;;;;;;;2.27;1.30;;;;;;;13.69;20.97;97415.75;5066253;28;20704;-78
2023/03/30 11:56:56;;;;;;;2.33;2.10;;;;;;;13.85;21.01;97406.22;5066852;28;20668;-75
2023/03/30 11:59:29;;;;;;;1.90;1.50;;;;;;;14.17;20.45;97403.66;5066614;28;20200;-79
2023/03/30 12:02:18;;;;;;;2.53;1.40;;;;;;;14.42;20.36;97399.69;5069152;28;20196;-74
2023/03/30 12:04:51;;;;;;;2.83;1.30;;;;;;;14.44;20.03;97400.44;5069014;28;20253;-75
2023/03/30 12:07:38;;;;;;;1.50;1.40;;;;;;;14.48;19.59;97401.09;5067170;28;20221;-77
2023/03/30 12:10:17;;;;;;;2.17;1.63;;;;;;;14.21;19.95;97393.00;5086704;28;20608;-77
2023/03/30 12:12:48;;;;;;;2.53;1.47;;;;;;;14.23;20.01;97393.75;5086470;28;20265;-77
2023/03/30 12:15:18;;;;;;;2.53;2.07;;;;;;;14.17;20.20;97386.28;5051226;28;20196;-80
2023/03/30 12:18:10;;;;;;;3.07;1.40;;;;;;;14.24;20.42;97385.00;5087190;28;20188;-78
2023/03/30 12:20:57;;;;;;;2.13;1.60;;;;;;;14.41;20.34;97395.38;5067684;28;20281;-75
2023/03/30 12:23:40;;;;;;;4.60;1.30;;;;;;;14.50;20.19;97389.66;5085064;28;20192;-78
2023/03/30 12:26:18;;;;;;;2.47;1.70;;;;;;;14.46;19.45;97385.56;5086575;28;20502;-76